Puntzi Mountain, Canada
Current Conditions -  °F | °C
As of 5:27 PM on Tuesday 25 Nov 2014 (Local Time) from CYWL Reporting Station
Light Fog Light Fog  
Wind Chill: 27°   Ceiling: 4000
Heat Index: 27°   Visibility: 5mi
Dew Point: 27°   Wind: 3mph
Humidity: 100%   Direction: 120°ESE
Pressure: 30.13"   Gusts: NA
Location:  52.12°N, 124.13°W
Report Text: CYWL 260127Z 12003KT 5SM BR MIFG OVC040 M03/M03 A3013 RMK ST8 SLP249
Loading
Personal Weather Stations






























Interactive Weather Map New forecast layout! Learn more

10-Day Weather Forecast

Advertisements
Track Severe Weather on mobile